Time;durP1;ratioP1;P1;durP2;ratioP2;P2;SDS_P1;SDS_P2;PMS_P1;PMS_P2;Temp;Humidity;BMP_temperature;BMP_pressure;BME280_temperature;BME280_humidity;BME280_pressure;Samples;Min_cycle;Max_cycle;Signal;HPM_P1;HPM_P2
2022/04/16 00:00:20;;;;;;;4.23;1.80;;;;;;;14.89;46.51;98910.13;4955148;29;20170;-87
2022/04/16 00:02:47;;;;;;;6.57;1.90;;;;;;;14.88;46.74;98912.88;4955119;28;20272;-87
2022/04/16 00:05:13;;;;;;;8.47;2.60;;;;;;;14.82;47.11;98911.53;4955197;29;20248;-87
2022/04/16 00:07:39;;;;;;;7.50;1.80;;;;;;;14.80;47.30;98905.53;4955033;29;20216;-87
2022/04/16 00:10:05;;;;;;;8.20;3.30;;;;;;;14.76;47.58;98914.63;4938117;29;20183;-88
2022/04/16 00:12:31;;;;;;;3.50;1.27;;;;;;;14.70;47.57;98915.91;4955169;29;20190;-87
2022/04/16 00:14:57;;;;;;;13.73;4.33;;;;;;;14.65;47.53;98919.81;4955251;29;20181;-87
2022/04/16 00:17:22;;;;;;;10.30;2.73;;;;;;;14.55;48.13;98917.03;4955020;29;20617;-86
2022/04/16 00:19:47;;;;;;;3.37;1.90;;;;;;;14.42;48.16;98931.19;4954970;29;20634;-87
2022/04/16 00:22:13;;;;;;;6.43;1.80;;;;;;;14.32;48.33;98925.75;4938005;29;20696;-87
2022/04/16 00:24:40;;;;;;;3.83;1.60;;;;;;;14.43;48.13;98917.06;4938042;29;20189;-87
2022/04/16 00:27:10;;;;;;;5.13;1.67;;;;;;;14.58;47.30;98922.09;4954742;29;20247;-87
2022/04/16 00:29:36;;;;;;;7.20;2.07;;;;;;;14.61;47.47;98915.75;4954869;29;20201;-87
2022/04/16 00:32:05;;;;;;;2.17;1.07;;;;;;;14.59;47.20;98915.03;4954846;29;20623;-87
2022/04/16 00:34:33;;;;;;;3.67;1.90;;;;;;;14.36;48.17;98913.19;4937876;29;20185;-87
2022/04/16 00:36:59;;;;;;;6.60;1.50;;;;;;;14.20;48.79;98921.31;4938286;29;20540;-87
2022/04/16 00:39:25;;;;;;;3.50;1.50;;;;;;;14.15;48.80;98912.88;4937900;29;20575;-88
2022/04/16 00:41:51;;;;;;;5.83;2.20;;;;;;;14.05;49.10;98917.94;4937773;29;20259;-87
2022/04/16 00:44:20;;;;;;;13.93;2.17;;;;;;;14.01;49.01;98921.75;4955282;29;20168;-87
2022/04/16 00:46:49;;;;;;;5.00;1.47;;;;;;;14.05;49.31;98927.63;4937770;29;20291;-87
2022/04/16 00:49:15;;;;;;;5.40;1.80;;;;;;;13.99;50.29;98928.91;4937864;29;20181;-87
2022/04/16 00:51:45;;;;;;;4.87;2.07;;;;;;;13.99;49.98;98928.09;4937750;29;20199;-87
2022/04/16 00:54:11;;;;;;;5.03;1.70;;;;;;;14.02;49.86;98927.84;4937779;29;20176;-87
2022/04/16 00:56:38;;;;;;;2.83;1.63;;;;;;;14.19;49.43;98927.53;4937615;29;20184;-87
2022/04/16 00:59:04;;;;;;;4.03;1.57;;;;;;;14.07;49.76;98929.22;4954616;29;20177;-87
2022/04/16 01:01:31;;;;;;;3.03;1.37;;;;;;;14.03;49.81;98926.91;4954856;29;20192;-87
2022/04/16 01:03:56;;;;;;;3.03;1.50;;;;;;;14.06;49.88;98922.28;4937709;29;20184;-87
2022/04/16 01:06:22;;;;;;;6.00;2.20;;;;;;;13.98;49.79;98923.75;4937556;29;20185;-87
2022/04/16 01:08:48;;;;;;;3.83;1.53;;;;;;;13.91;50.20;98914.59;4954794;29;20259;-87
2022/04/16 01:11:14;;;;;;;4.77;1.33;;;;;;;13.89;50.64;98911.22;4937635;29;20336;-87
2022/04/16 01:13:41;;;;;;;1.47;1.03;;;;;;;13.83;49.98;98912.50;4954763;29;20651;-87
2022/04/16 01:16:06;;;;;;;2.13;1.30;;;;;;;13.80;50.91;98917.97;4955708;28;20507;-86
2022/04/16 01:18:33;;;;;;;4.00;1.23;;;;;;;13.64;51.57;98917.34;4957987;29;20643;-87
2022/04/16 01:21:02;;;;;;;4.37;1.43;;;;;;;13.77;50.99;98915.56;4957964;29;20316;-87
2022/04/16 01:23:28;;;;;;;3.43;1.20;;;;;;;13.63;51.68;98910.38;4957902;29;20315;-87
2022/04/16 01:25:56;;;;;;;2.73;1.70;;;;;;;13.60;51.81;98904.50;4957906;29;20170;-87
2022/04/16 01:28:22;;;;;;;6.27;2.20;;;;;;;13.62;51.72;98908.72;4940833;29;20223;-87
2022/04/16 01:30:47;;;;;;;7.30;1.77;;;;;;;13.69;52.07;98901.22;4957661;29;20613;-87
2022/04/16 01:33:15;;;;;;;2.23;1.13;;;;;;;13.82;51.14;98899.41;4940743;29;20184;-87
2022/04/16 01:35:40;;;;;;;5.20;1.90;;;;;;;13.75;51.90;98885.00;4957948;29;20180;-87
2022/04/16 01:38:08;;;;;;;9.33;2.07;;;;;;;13.78;51.84;98890.06;4957919;29;20252;-87
2022/04/16 01:40:34;;;;;;;1.93;1.20;;;;;;;13.75;52.13;98885.84;4957865;29;20181;-87
2022/04/16 01:43:00;;;;;;;3.27;1.47;;;;;;;13.90;51.42;98884.78;4957459;28;20732;-87
2022/04/16 01:45:26;;;;;;;2.53;1.33;;;;;;;13.79;51.66;98879.41;4957516;29;20191;-86
2022/04/16 01:47:53;;;;;;;5.53;1.73;;;;;;;13.69;52.06;98883.63;4940470;29;20637;-87
2022/04/16 01:50:19;;;;;;;5.57;1.73;;;;;;;13.49;52.12;98886.81;4957400;29;20208;-87
2022/04/16 01:52:46;;;;;;;3.60;1.60;;;;;;;13.49;52.63;98887.63;4957433;29;20169;-86
2022/04/16 01:55:12;;;;;;;10.60;3.30;;;;;;;13.46;52.49;98884.38;4957646;29;20642;-87
2022/04/16 01:57:38;;;;;;;5.10;3.03;;;;;;;13.47;52.35;98888.66;4957197;29;20173;-87
2022/04/16 02:00:06;;;;;;;4.77;2.63;;;;;;;13.44;51.60;98889.72;4957167;29;20174;-87
2022/04/16 02:02:33;;;;;;;7.83;2.40;;;;;;;13.41;51.52;98899.63;4957462;29;20243;-87
2022/04/16 02:04:58;;;;;;;5.57;2.57;;;;;;;13.36;51.24;98893.84;4940564;29;20652;-87
2022/04/16 02:07:24;;;;;;;4.40;2.00;;;;;;;13.37;51.46;98887.63;4957018;29;20205;-87
2022/04/16 02:09:49;;;;;;;3.70;1.80;;;;;;;13.34;51.12;98887.81;4957356;29;20172;-87
2022/04/16 02:12:14;;;;;;;4.47;2.20;;;;;;;13.26;51.56;98884.88;4957034;29;20169;-87
2022/04/16 02:14:40;;;;;;;4.50;2.10;;;;;;;13.14;51.67;98885.69;4940078;29;20636;-87
2022/04/16 02:17:05;;;;;;;4.03;1.87;;;;;;;13.02;52.65;98892.59;4956933;29;20224;-87
2022/04/16 02:19:34;;;;;;;4.77;2.23;;;;;;;13.17;52.05;98896.03;4956926;29;20184;-87
2022/04/16 02:21:59;;;;;;;3.73;2.03;;;;;;;13.28;51.42;98890.88;4956815;29;20661;-86
2022/04/16 02:24:25;;;;;;;4.77;2.30;;;;;;;13.27;51.31;98886.56;4956821;29;20663;-87
2022/04/16 02:26:50;;;;;;;5.50;2.80;;;;;;;13.02;52.41;98884.72;4956290;28;20208;-87
2022/04/16 02:29:16;;;;;;;5.93;2.00;;;;;;;12.85;52.95;98880.53;4957083;29;20259;-86
2022/04/16 02:31:42;;;;;;;7.83;2.40;;;;;;;12.83;53.07;98878.97;4939853;29;20278;-86
2022/04/16 02:34:11;;;;;;;2.93;1.67;;;;;;;12.84;53.51;98884.09;4956972;29;20266;-86
2022/04/16 02:36:37;;;;;;;5.37;1.97;;;;;;;12.78;53.90;98894.19;4956897;29;20266;-86
2022/04/16 02:39:04;;;;;;;4.47;1.80;;;;;;;12.75;53.57;98890.00;4939682;29;20281;-86
2022/04/16 02:41:29;;;;;;;7.87;2.10;;;;;;;12.72;53.95;98894.59;4956507;29;20191;-86
2022/04/16 02:43:55;;;;;;;7.40;2.80;;;;;;;12.68;54.24;98890.50;4956393;28;20190;-86
2022/04/16 02:49:08;;;;;;;4.33;1.70;;;;;;;12.60;55.19;98885.72;4956927;29;20635;-87
2022/04/16 02:51:34;;;;;;;9.47;3.60;;;;;;;12.58;55.10;98890.22;4939430;29;20183;-86
2022/04/16 02:54:00;;;;;;;8.63;3.13;;;;;;;12.55;55.27;98885.16;4939388;29;20602;-86
2022/04/16 02:56:25;;;;;;;5.43;2.33;;;;;;;12.51;55.52;98885.47;4956286;29;20623;-87
2022/04/16 02:58:50;;;;;;;6.00;2.73;;;;;;;12.57;54.96;98885.94;4956224;29;20702;-86
2022/04/16 03:01:16;;;;;;;3.30;1.70;;;;;;;12.53;55.84;98888.81;4956118;29;20171;-87
2022/04/16 03:03:42;;;;;;;3.93;1.80;;;;;;;12.41;56.41;98884.38;4956337;29;20548;-86
2022/04/16 03:06:08;;;;;;;9.00;1.50;;;;;;;12.36;56.98;98883.81;4939120;29;20631;-86
2022/04/16 03:08:34;;;;;;;2.43;1.50;;;;;;;12.36;57.39;98876.78;4956195;29;20213;-86
2022/04/16 03:11:00;;;;;;;2.93;1.80;;;;;;;12.43;57.03;98880.69;4939029;29;20174;-86
2022/04/16 03:13:26;;;;;;;5.10;1.77;;;;;;;12.44;57.06;98885.03;4938977;29;20178;-86
2022/04/16 03:18:35;;;;;;;2.80;1.47;;;;;;;12.47;57.00;98886.63;4955919;29;20711;-86
2022/04/16 03:21:01;;;;;;;2.60;1.50;;;;;;;12.49;57.08;98884.72;4955790;29;20178;-87
2022/04/16 03:23:28;;;;;;;11.50;2.30;;;;;;;12.59;56.89;98891.91;4956042;29;20253;-86
2022/04/16 03:25:56;;;;;;;10.30;1.60;;;;;;;12.66;56.08;98882.69;4955929;29;20236;-87
2022/04/16 03:28:22;;;;;;;5.10;2.03;;;;;;;12.69;56.53;98879.00;4956077;29;20210;-86
2022/04/16 03:30:47;;;;;;;3.23;2.07;;;;;;;12.72;56.09;98879.66;4956100;29;20173;-87
2022/04/16 03:33:13;;;;;;;2.73;1.53;;;;;;;12.68;56.61;98883.41;4955840;29;20249;-86
2022/04/16 03:35:38;;;;;;;4.90;1.47;;;;;;;12.70;56.86;98892.06;4956071;29;20209;-87
2022/04/16 03:38:04;;;;;;;3.67;1.63;;;;;;;12.77;56.53;98889.88;4954971;28;20180;-86
2022/04/16 03:40:29;;;;;;;3.87;1.80;;;;;;;12.65;57.43;98893.31;4955289;29;20199;-86
2022/04/16 03:42:59;;;;;;;2.50;1.73;;;;;;;12.65;57.70;98888.91;4955206;28;20252;-86
2022/04/16 03:45:34;;;;;;;2.57;1.40;;;;;;;12.71;58.17;98899.00;4938453;29;20180;-86
2022/04/16 03:48:02;;;;;;;2.60;1.30;;;;;;;12.74;57.86;98900.59;4955523;29;20200;-86
2022/04/16 03:50:29;;;;;;;3.13;1.83;;;;;;;12.66;58.40;98898.47;4955442;29;20185;-86
2022/04/16 03:52:56;;;;;;;7.07;2.40;;;;;;;12.69;58.47;98902.69;4955551;29;20193;-86
2022/04/16 04:00:54;;;;;;;4.47;1.87;;;;;;;12.97;58.02;98896.47;4955774;29;20173;-87
2022/04/16 04:03:23;;;;;;;2.93;1.37;;;;;;;12.85;59.45;98900.75;4938279;29;20183;-86
2022/04/16 04:05:49;;;;;;;3.80;1.63;;;;;;;12.94;59.55;98895.72;4938107;29;20180;-87
2022/04/16 04:08:16;;;;;;;3.37;1.80;;;;;;;12.94;59.40;98900.97;4938076;29;20214;-86
2022/04/16 04:10:42;;;;;;;5.43;2.90;;;;;;;13.09;59.09;98895.69;4938148;29;20282;-87
2022/04/16 04:13:08;;;;;;;3.23;1.70;;;;;;;13.11;58.44;98896.41;4938078;29;20246;-86
2022/04/16 04:15:33;;;;;;;3.57;1.93;;;;;;;13.16;58.74;98902.22;4955007;29;20616;-86
2022/04/16 04:18:00;;;;;;;4.33;2.37;;;;;;;13.20;59.28;98901.94;4938071;29;20188;-87
2022/04/16 04:20:27;;;;;;;4.07;2.40;;;;;;;13.26;58.80;98906.75;4938020;29;20247;-86
2022/04/16 04:22:52;;;;;;;4.17;1.80;;;;;;;13.28;58.89;98904.91;4938057;29;20183;-87
2022/04/16 04:25:18;;;;;;;3.87;1.77;;;;;;;13.41;58.05;98910.16;4955057;29;20189;-86
2022/04/16 04:27:43;;;;;;;3.53;2.00;;;;;;;13.52;57.49;98911.09;4954776;29;20206;-87
2022/04/16 04:30:10;;;;;;;3.73;1.80;;;;;;;13.62;57.73;98907.88;4937899;29;20183;-87
2022/04/16 04:32:36;;;;;;;4.73;2.10;;;;;;;13.79;56.40;98899.63;4937900;29;20338;-87
2022/04/16 04:35:03;;;;;;;3.50;1.97;;;;;;;14.04;55.90;98899.63;4955101;29;20187;-86
2022/04/16 04:37:28;;;;;;;4.80;2.30;;;;;;;14.22;54.79;98900.09;4954781;29;20535;-87
2022/04/16 04:39:54;;;;;;;3.50;2.27;;;;;;;14.29;55.85;98891.66;4955037;29;20177;-87
2022/04/16 04:42:27;;;;;;;7.30;2.60;;;;;;;14.30;56.06;98890.72;4954770;29;20324;-86
2022/04/16 04:44:53;;;;;;;2.77;1.70;;;;;;;14.38;55.85;98887.56;4937792;29;20287;-87
2022/04/16 04:47:19;;;;;;;8.60;2.77;;;;;;;14.54;55.75;98890.78;4937723;29;20207;-87
2022/04/16 04:49:44;;;;;;;5.70;3.20;;;;;;;14.71;54.41;98899.13;4955455;28;20663;-87
2022/04/16 04:52:10;;;;;;;8.17;4.17;;;;;;;14.92;53.01;98887.94;4958503;29;20311;-87
2022/04/16 04:54:35;;;;;;;7.07;3.97;;;;;;;15.15;52.21;98893.19;4958724;29;20595;-87
2022/04/16 04:57:03;;;;;;;10.17;3.67;;;;;;;15.36;51.47;98885.44;4958367;29;20231;-86
2022/04/16 04:59:28;;;;;;;12.20;3.80;;;;;;;15.46;51.17;98889.09;4958355;29;20177;-87
2022/04/16 05:01:54;;;;;;;7.20;3.43;;;;;;;15.56;50.77;98891.91;4941440;29;20625;-86
2022/04/16 05:04:19;;;;;;;9.40;3.33;;;;;;;15.67;50.09;98881.34;4941337;29;20188;-87
2022/04/16 05:06:45;;;;;;;6.87;3.13;;;;;;;15.79;48.78;98890.97;4941245;29;20671;-87
2022/04/16 05:09:11;;;;;;;8.07;3.23;;;;;;;15.84;49.03;98883.50;4958215;29;20275;-87
2022/04/16 05:11:36;;;;;;;8.53;3.27;;;;;;;15.95;48.87;98886.19;4958418;29;20177;-87
2022/04/16 05:14:02;;;;;;;8.70;4.23;;;;;;;16.05;49.17;98881.84;4958107;29;20622;-87
2022/04/16 05:16:27;;;;;;;9.23;3.93;;;;;;;16.12;49.43;98888.31;4958030;29;20310;-87
2022/04/16 05:18:53;;;;;;;6.10;3.27;;;;;;;16.15;49.61;98882.78;4941108;29;20193;-87
2022/04/16 05:21:18;;;;;;;8.83;3.43;;;;;;;16.24;49.23;98891.81;4957990;29;20182;-87
2022/04/16 05:23:44;;;;;;;8.97;3.20;;;;;;;16.23;49.31;98890.97;4941722;29;20273;-87
2022/04/16 05:26:10;;;;;;;5.33;2.87;;;;;;;16.22;49.99;98899.03;4957923;29;20654;-87
2022/04/16 05:28:39;;;;;;;6.13;3.13;;;;;;;16.25;50.67;98898.75;4958312;29;20735;-87
2022/04/16 05:31:06;;;;;;;6.73;3.30;;;;;;;16.29;50.58;98902.84;4940877;29;20180;-87
2022/04/16 05:36:16;;;;;;;9.00;2.60;;;;;;;16.50;49.10;98903.78;4958295;29;20556;-87
2022/04/16 05:38:42;;;;;;;4.13;2.07;;;;;;;16.62;48.60;98910.75;4957833;29;20173;-87
2022/04/16 05:41:08;;;;;;;13.20;2.50;;;;;;;16.71;48.39;98912.69;4940718;29;20188;-87
2022/04/16 05:43:33;;;;;;;4.03;2.17;;;;;;;16.79;48.26;98910.25;4957448;29;20215;-87
2022/04/16 05:45:58;;;;;;;6.40;2.47;;;;;;;16.87;48.71;98912.28;4958059;29;20190;-87
2022/04/16 05:48:24;;;;;;;4.53;2.40;;;;;;;16.99;47.80;98906.81;4957308;29;20196;-87
2022/04/16 05:50:50;;;;;;;6.60;2.33;;;;;;;17.15;47.33;98906.38;4940500;29;20188;-87
2022/04/16 05:53:16;;;;;;;2.90;1.80;;;;;;;17.29;47.40;98902.59;4957389;29;20258;-87
2022/04/16 05:55:47;;;;;;;5.63;2.37;;;;;;;17.40;46.92;98906.00;4957361;29;20208;-87
2022/04/16 05:58:13;;;;;;;5.90;2.40;;;;;;;17.52;46.19;98894.38;4940475;29;20264;-88
2022/04/16 06:00:39;;;;;;;7.50;3.37;;;;;;;17.68;46.72;98888.66;4957263;29;20259;-88
2022/04/16 06:03:05;;;;;;;8.27;2.77;;;;;;;17.80;47.11;98888.44;4939747;29;20219;-87
2022/04/16 06:05:31;;;;;;;4.93;2.33;;;;;;;17.95;46.61;98896.06;4940262;29;20185;-87
2022/04/16 06:07:58;;;;;;;7.27;2.37;;;;;;;17.98;46.55;98890.47;4957350;29;20193;-87
2022/04/16 06:10:23;;;;;;;4.27;1.80;;;;;;;18.07;45.84;98893.16;4957395;29;20192;-87
2022/04/16 06:12:49;;;;;;;5.60;1.80;;;;;;;18.16;46.11;98896.84;4957588;29;20177;-87
2022/04/16 06:15:14;;;;;;;4.80;2.00;;;;;;;18.31;45.91;98890.19;4957061;29;20185;-87
2022/04/16 06:17:40;;;;;;;3.73;2.20;;;;;;;18.43;45.52;98895.25;4957040;29;20568;-87
2022/04/16 06:20:07;;;;;;;4.33;1.80;;;;;;;18.61;45.64;98900.75;4956956;29;20169;-88
2022/04/16 06:22:33;;;;;;;2.67;1.63;;;;;;;18.82;45.02;98898.00;4957405;29;20177;-87
2022/04/16 06:24:58;;;;;;;5.00;2.40;;;;;;;18.99;44.68;98892.00;4956851;29;20533;-87
2022/04/16 06:27:23;;;;;;;4.30;2.13;;;;;;;19.22;44.24;98890.75;4956674;29;20281;-88
2022/04/16 06:29:49;;;;;;;6.30;3.17;;;;;;;19.38;43.36;98896.38;4956760;29;20184;-88
2022/04/16 06:32:14;;;;;;;7.17;2.50;;;;;;;19.47;43.78;98898.16;4939794;29;20260;-87
2022/04/16 06:34:40;;;;;;;7.13;3.67;;;;;;;19.48;43.75;98899.00;4956687;29;20188;-88
2022/04/16 06:37:06;;;;;;;8.73;3.10;;;;;;;19.68;43.79;98886.53;4939714;29;20289;-87
2022/04/16 06:39:31;;;;;;;5.07;2.93;;;;;;;19.94;42.53;98882.25;4956565;29;20177;-88
2022/04/16 06:41:56;;;;;;;7.67;3.07;;;;;;;20.22;41.89;98884.78;4956871;28;20271;-87
2022/04/16 06:44:22;;;;;;;8.00;3.80;;;;;;;20.59;41.79;98882.09;4956690;29;20661;-88
2022/04/16 06:46:50;;;;;;;3.57;1.90;;;;;;;20.79;41.30;98878.31;4939563;29;20205;-88
2022/04/16 06:49:15;;;;;;;7.07;1.80;;;;;;;20.75;41.20;98871.59;4939764;29;20181;-88
2022/04/16 06:51:40;;;;;;;4.60;2.00;;;;;;;20.96;41.49;98876.66;4939436;29;20196;-88
2022/04/16 06:54:06;;;;;;;3.20;1.57;;;;;;;21.19;41.15;98871.72;4940237;29;20169;-88
2022/04/16 06:56:31;;;;;;;2.83;1.20;;;;;;;21.39;40.72;98870.53;4939267;29;20539;-88
2022/04/16 06:58:56;;;;;;;3.67;1.80;;;;;;;21.61;39.61;98853.19;4939544;29;20181;-88
2022/04/16 07:01:22;;;;;;;3.10;1.30;;;;;;;21.77;39.17;98864.81;4939541;29;20280;-89
2022/04/16 07:03:47;;;;;;;3.07;1.50;;;;;;;21.77;39.94;98872.81;4956221;29;20184;-88
2022/04/16 07:06:16;;;;;;;4.20;1.70;;;;;;;22.07;40.19;98871.50;4939961;29;20185;-88
2022/04/16 07:08:41;;;;;;;7.30;1.73;;;;;;;22.33;39.18;98866.09;4956577;29;20204;-89
2022/04/16 07:11:06;;;;;;;2.17;1.30;;;;;;;22.58;37.39;98854.53;4956369;29;20243;-88
2022/04/16 07:13:32;;;;;;;4.53;1.50;;;;;;;22.76;36.52;98855.25;4955874;28;20189;-89
2022/04/16 07:15:57;;;;;;;4.93;2.53;;;;;;;22.94;35.86;98847.09;4956401;29;20213;-89
2022/04/16 07:18:24;;;;;;;4.80;1.93;;;;;;;23.05;35.60;98860.13;4938799;29;20184;-89
2022/04/16 07:20:49;;;;;;;3.30;1.80;;;;;;;22.95;36.21;98854.13;4955847;29;20248;-88
2022/04/16 07:23:15;;;;;;;4.20;1.63;;;;;;;23.05;36.47;98850.28;4955747;29;20578;-89
2022/04/16 07:25:40;;;;;;;3.17;1.90;;;;;;;23.12;35.75;98856.63;4955893;29;20180;-88
2022/04/16 07:28:06;;;;;;;2.40;1.40;;;;;;;23.16;35.34;98857.97;4939752;29;20197;-88
2022/04/16 07:30:31;;;;;;;3.53;1.33;;;;;;;23.15;35.70;98858.13;4939003;29;20268;-88
2022/04/16 07:32:57;;;;;;;4.80;1.33;;;;;;;23.11;34.96;98860.28;4955589;29;20228;-89
2022/04/16 07:35:23;;;;;;;3.53;2.03;;;;;;;22.98;34.82;98848.44;4955537;29;20251;-88
2022/04/16 07:37:48;;;;;;;2.63;1.27;;;;;;;22.96;34.59;98855.78;4955933;29;20181;-88
2022/04/16 07:40:14;;;;;;;2.07;1.10;;;;;;;22.95;34.81;98854.97;4938869;29;20185;-88
2022/04/16 07:42:39;;;;;;;3.50;1.37;;;;;;;22.95;35.69;98851.44;4938386;29;20196;-89
2022/04/16 07:45:06;;;;;;;5.07;1.90;;;;;;;23.00;34.49;98844.59;4938685;29;20184;-89
2022/04/16 07:47:32;;;;;;;6.17;1.77;;;;;;;22.89;34.84;98833.38;4939130;29;20271;-89
2022/04/16 07:49:57;;;;;;;3.43;1.37;;;;;;;22.85;35.34;98842.75;4955316;29;20177;-89
2022/04/16 07:52:25;;;;;;;2.50;1.57;;;;;;;22.83;34.89;98832.22;4955252;29;20187;-88
2022/04/16 07:54:51;;;;;;;4.53;1.77;;;;;;;22.91;34.65;98842.06;4938300;29;20526;-89
2022/04/16 07:57:17;;;;;;;4.20;1.93;;;;;;;22.97;35.30;98836.91;4955178;29;20173;-89
2022/04/16 07:59:42;;;;;;;3.87;1.67;;;;;;;23.09;34.08;98845.41;4938501;29;20203;-89
2022/04/16 08:02:08;;;;;;;2.87;1.70;;;;;;;23.19;33.98;98835.41;4955132;29;20188;-89
2022/04/16 08:04:33;;;;;;;2.87;1.50;;;;;;;23.38;33.34;98836.91;4955122;29;20612;-89
2022/04/16 08:06:59;;;;;;;4.97;1.70;;;;;;;23.50;35.00;98844.47;4955108;29;20280;-89
2022/04/16 08:09:24;;;;;;;4.77;2.00;;;;;;;23.61;33.68;98836.06;4955077;29;20173;-89
2022/04/16 08:11:50;;;;;;;3.23;1.30;;;;;;;23.74;33.93;98830.19;4955025;29;20177;-89
2022/04/16 08:14:15;;;;;;;3.10;1.47;;;;;;;23.82;33.80;98825.63;4955314;29;20177;-89
2022/04/16 08:16:40;;;;;;;3.27;1.33;;;;;;;23.91;33.46;98830.97;4955005;29;20173;-90
2022/04/16 08:19:06;;;;;;;2.70;1.30;;;;;;;24.02;33.22;98828.75;4955044;29;20179;-89
2022/04/16 08:21:34;;;;;;;3.50;1.30;;;;;;;24.15;34.72;98823.72;4955121;29;20621;-89
2022/04/16 08:26:51;;;;;;;4.80;1.70;;;;;;;24.03;32.97;98818.91;4938909;29;20725;-88
2022/04/16 08:29:17;;;;;;;5.17;2.00;;;;;;;24.01;33.42;98818.22;4961311;29;20177;-90
2022/04/16 08:31:43;;;;;;;4.23;1.77;;;;;;;24.23;33.34;98812.97;4961227;29;20641;-89
2022/04/16 08:34:08;;;;;;;4.93;1.77;;;;;;;24.36;32.98;98813.25;4944624;29;20184;-89
2022/04/16 08:36:34;;;;;;;3.97;1.63;;;;;;;24.53;33.31;98815.84;4944345;29;20658;-89
2022/04/16 08:38:59;;;;;;;2.70;1.80;;;;;;;24.74;32.75;98807.97;4961249;29;20173;-90
2022/04/16 08:41:25;;;;;;;6.90;2.23;;;;;;;24.86;32.24;98803.91;4944205;29;20224;-90
2022/04/16 08:43:53;;;;;;;5.70;2.33;;;;;;;24.97;32.38;98801.63;4944681;29;20532;-90
2022/04/16 08:46:21;;;;;;;3.40;1.50;;;;;;;25.12;31.69;98800.84;4961327;28;20201;-90
2022/04/16 08:48:48;;;;;;;5.80;1.93;;;;;;;25.18;33.12;98800.13;4944048;28;20578;-92
2022/04/16 08:51:15;;;;;;;3.23;1.87;;;;;;;25.31;32.13;98797.66;4961057;29;20259;-90
2022/04/16 08:53:41;;;;;;;5.73;3.03;;;;;;;25.26;32.04;98792.00;4961269;28;20180;-90
2022/04/16 08:56:07;;;;;;;7.40;2.53;;;;;;;25.29;32.00;98797.03;4961247;29;20191;-90
2022/04/16 08:58:32;;;;;;;5.53;1.70;;;;;;;25.51;32.87;98786.25;4960988;29;20629;-90
2022/04/16 09:00:59;;;;;;;3.47;1.90;;;;;;;25.62;31.87;98783.13;4961031;29;20251;-89
2022/04/16 09:03:35;;;;;;;2.37;1.00;;;;;;;25.33;32.95;98780.38;4961011;28;20243;-90
2022/04/16 09:06:01;;;;;;;4.73;1.40;;;;;;;25.58;32.77;98779.13;4961590;29;20265;-90
2022/04/16 09:08:29;;;;;;;2.87;1.70;;;;;;;25.76;32.27;98777.94;4960906;28;20216;-89
2022/04/16 09:11:10;;;;;;;3.87;1.10;;;;;;;25.65;31.84;98774.66;4960924;29;20172;-90
2022/04/16 09:13:39;;;;;;;3.13;1.57;;;;;;;25.60;32.03;98768.22;4961411;29;20645;-90
2022/04/16 09:16:10;;;;;;;2.80;1.37;;;;;;;25.86;32.04;98771.28;4943858;29;20192;-89
2022/04/16 09:18:50;;;;;;;4.40;1.50;;;;;;;26.05;32.28;98775.19;4944559;29;20181;-90
2022/04/16 09:21:16;;;;;;;2.37;1.20;;;;;;;26.10;32.40;98768.25;4943866;29;20641;-90
2022/04/16 09:23:47;;;;;;;2.90;1.33;;;;;;;26.43;32.08;98770.53;4943836;29;20195;-91
2022/04/16 09:26:24;;;;;;;3.33;2.00;;;;;;;26.32;32.04;98763.78;4960822;29;20712;-91
2022/04/16 09:28:49;;;;;;;4.60;1.40;;;;;;;26.58;31.73;98763.25;4943792;29;20263;-91
2022/04/16 09:31:15;;;;;;;3.90;1.52;;;;;;;26.87;30.44;98763.16;4943903;29;20513;-90
2022/04/16 09:33:41;;;;;;;4.10;1.65;;;;;;;27.17;31.09;98759.28;4960718;28;20660;-91
2022/04/16 09:36:06;;;;;;;4.65;1.45;;;;;;;27.39;29.84;98752.84;4959194;28;20177;-90
2022/04/16 09:38:36;;;;;;;3.85;2.05;;;;;;;27.54;29.76;98760.00;4957520;29;20217;-92
2022/04/16 09:41:06;;;;;;;8.15;1.23;;;;;;;27.54;30.94;98743.84;4957580;29;20182;-89
2022/04/16 09:43:38;;;;;;;4.40;1.45;;;;;;;27.47;30.80;98749.16;4958580;28;20231;-92
2022/04/16 09:46:13;;;;;;;2.45;1.30;;;;;;;27.74;30.29;98748.31;4957902;29;20181;-93
2022/04/16 09:48:39;;;;;;;3.75;1.42;;;;;;;27.83;28.75;98740.91;4958074;29;20216;-91
2022/04/16 09:51:05;;;;;;;3.03;1.60;;;;;;;27.79;29.05;98737.75;4940883;29;20535;-92
2022/04/16 09:53:31;;;;;;;3.08;1.10;;;;;;;28.00;28.80;98734.13;4957501;29;20177;-92
2022/04/16 09:55:59;;;;;;;2.80;1.38;;;;;;;28.15;28.80;98734.84;4957467;29;20192;-93
2022/04/16 09:58:36;;;;;;;3.72;1.42;;;;;;;28.14;29.18;98738.59;4957481;29;20200;-92
2022/04/16 10:01:02;;;;;;;3.38;1.40;;;;;;;28.05;29.40;98731.69;4957963;29;20628;-93
2022/04/16 10:03:29;;;;;;;2.88;1.30;;;;;;;28.04;28.96;98730.84;4957520;29;20196;-91
2022/04/16 10:05:58;;;;;;;4.07;1.58;;;;;;;27.88;28.83;98730.34;4957787;29;20274;-91
2022/04/16 10:08:25;;;;;;;4.70;1.70;;;;;;;28.06;29.13;98727.13;4957230;29;20197;-93
2022/04/16 10:10:55;;;;;;;2.88;1.15;;;;;;;28.36;29.27;98725.78;4957312;29;20216;-91
2022/04/16 10:13:22;;;;;;;5.32;1.52;;;;;;;28.42;28.29;98727.66;4957178;29;20653;-93
2022/04/16 10:16:13;;;;;;;4.72;1.70;;;;;;;28.51;28.90;98721.06;4940508;29;20343;-93
2022/04/16 10:18:38;;;;;;;4.32;1.35;;;;;;;28.57;28.08;98725.59;4957463;29;20180;-93
2022/04/16 10:21:04;;;;;;;1.98;1.23;;;;;;;28.69;28.16;98726.72;4940265;29;20181;-93
2022/04/16 10:23:38;;;;;;;7.13;2.15;;;;;;;28.64;28.94;98721.91;4957338;29;20196;-93
2022/04/16 10:26:06;;;;;;;4.60;1.10;;;;;;;28.67;29.89;98719.88;4940118;29;20157;-92
2022/04/16 10:28:37;;;;;;;3.78;1.60;;;;;;;28.68;28.73;98722.34;4956803;29;20239;-91
2022/04/16 10:31:02;;;;;;;4.82;1.67;;;;;;;28.70;27.91;98719.44;4957094;29;20162;-93
2022/04/16 10:33:28;;;;;;;10.20;1.63;;;;;;;28.96;27.56;98725.69;4956810;29;20188;-92
2022/04/16 10:35:56;;;;;;;4.68;1.45;;;;;;;29.19;27.53;98715.28;4957079;29;20593;-93
2022/04/16 10:38:26;;;;;;;3.08;1.08;;;;;;;29.28;27.41;98713.22;4956936;29;20180;-92
2022/04/16 10:40:59;;;;;;;5.05;1.45;;;;;;;29.09;27.38;98720.28;4939901;29;20177;-93
2022/04/16 10:43:30;;;;;;;3.00;1.40;;;;;;;29.17;26.46;98717.38;4956530;28;20244;-93
2022/04/16 10:46:01;;;;;;;4.38;1.55;;;;;;;29.14;26.32;98716.97;4939881;29;20176;-92
2022/04/16 10:48:28;;;;;;;2.45;1.23;;;;;;;28.94;24.76;98718.81;4956226;28;20313;-94
2022/04/16 10:50:58;;;;;;;4.68;1.23;;;;;;;28.74;25.45;98712.59;4939718;29;20641;-93
2022/04/16 10:53:28;;;;;;;2.13;1.20;;;;;;;28.61;25.40;98713.38;4956556;29;20181;-92
2022/04/16 10:55:54;;;;;;;3.08;1.08;;;;;;;28.81;26.01;98716.13;4956454;29;20211;-92
2022/04/16 10:58:30;;;;;;;2.85;1.20;;;;;;;29.01;25.56;98709.69;4956672;29;20331;-92
2022/04/16 11:01:09;;;;;;;2.05;1.15;;;;;;;29.31;25.42;98706.56;4939404;29;20587;-93
2022/04/16 11:03:48;;;;;;;4.88;1.17;;;;;;;29.49;23.92;98707.59;4940080;29;20181;-92
2022/04/16 11:06:15;;;;;;;2.15;0.90;;;;;;;29.41;24.51;98702.41;4956559;29;20248;-93
2022/04/16 11:08:42;;;;;;;2.90;1.02;;;;;;;29.49;23.51;98699.47;4956297;29;20669;-95
2022/04/16 11:11:09;;;;;;;3.65;1.40;;;;;;;29.44;24.21;98702.00;4939370;29;20205;-92
2022/04/16 11:13:37;;;;;;;3.38;1.30;;;;;;;29.19;24.02;98700.97;4956466;29;20177;-91
2022/04/16 11:16:04;;;;;;;2.97;1.48;;;;;;;29.03;24.15;98702.25;4956281;29;20663;-92
2022/04/16 11:18:41;;;;;;;3.50;1.10;;;;;;;28.31;25.00;98703.97;4955940;29;20169;-93
2022/04/16 11:21:16;;;;;;;2.28;1.10;;;;;;;28.26;24.46;98711.84;4939232;29;20188;-95
2022/04/16 11:23:50;;;;;;;1.85;1.00;;;;;;;28.58;25.71;98698.44;4956090;29;20164;-93
2022/04/16 11:34:33;;;;;;;3.28;1.25;;;;;;;28.46;26.16;98691.97;4956138;29;20224;-93
2022/04/16 11:36:59;;;;;;;3.40;1.42;;;;;;;28.45;24.90;98695.75;4955780;29;20625;-93
2022/04/16 11:39:34;;;;;;;2.45;1.00;;;;;;;28.52;24.74;98687.66;4938651;29;20185;-93
2022/04/16 11:42:06;;;;;;;1.80;1.08;;;;;;;28.55;24.89;98682.69;4938764;29;20296;-93
2022/04/16 11:44:50;;;;;;;4.03;1.50;;;;;;;28.52;25.42;98679.56;4955582;29;20256;-93
2022/04/16 11:47:20;;;;;;;3.45;1.33;;;;;;;28.66;25.07;98680.44;4955938;29;20662;-92
2022/04/16 11:49:53;;;;;;;4.57;1.15;;;;;;;28.49;25.58;98683.50;4956310;29;20165;-93
2022/04/16 11:52:30;;;;;;;4.18;1.73;;;;;;;28.65;25.84;98679.59;4955572;29;20231;-92
2022/04/16 11:55:10;;;;;;;3.65;1.52;;;;;;;28.77;24.93;98666.34;4938516;29;20181;-93
2022/04/16 11:57:36;;;;;;;5.70;0.88;;;;;;;28.38;24.18;98675.19;4955976;29;20248;-94